sensor_id;sensor_type;location;lat;lon;timestamp;P1;durP1;ratioP1;P2;durP2;ratioP2
40541;SDS011;49288;52.194;5.676;2022-09-21T00:03:17;3.80;;;1.75;;
40541;SDS011;49288;52.194;5.676;2022-09-21T00:08:20;6.05;;;2.15;;
40541;SDS011;49288;52.194;5.676;2022-09-21T00:13:23;4.07;;;1.90;;
40541;SDS011;49288;52.194;5.676;2022-09-21T00:18:28;8.68;;;1.95;;
40541;SDS011;49288;52.194;5.676;2022-09-21T00:23:33;13.48;;;2.03;;
40541;SDS011;49288;52.194;5.676;2022-09-21T00:28:37;7.20;;;1.80;;
40541;SDS011;49288;52.194;5.676;2022-09-21T00:33:41;5.72;;;2.17;;
40541;SDS011;49288;52.194;5.676;2022-09-21T00:38:54;6.00;;;1.95;;
40541;SDS011;49288;52.194;5.676;2022-09-21T00:44:15;6.60;;;2.05;;
40541;SDS011;49288;52.194;5.676;2022-09-21T00:49:33;4.00;;;2.20;;
40541;SDS011;49288;52.194;5.676;2022-09-21T00:54:44;10.23;;;2.10;;
40541;SDS011;49288;52.194;5.676;2022-09-21T00:59:51;7.80;;;2.30;;
40541;SDS011;49288;52.194;5.676;2022-09-21T01:04:55;4.75;;;2.05;;
40541;SDS011;49288;52.194;5.676;2022-09-21T01:09:59;5.38;;;2.47;;
40541;SDS011;49288;52.194;5.676;2022-09-21T01:15:13;3.75;;;2.10;;
40541;SDS011;49288;52.194;5.676;2022-09-21T01:25:42;10.82;;;2.42;;
40541;SDS011;49288;52.194;5.676;2022-09-21T01:30:56;10.85;;;2.53;;
40541;SDS011;49288;52.194;5.676;2022-09-21T01:36:08;7.47;;;2.50;;
40541;SDS011;49288;52.194;5.676;2022-09-21T01:41:13;5.00;;;2.30;;
40541;SDS011;49288;52.194;5.676;2022-09-21T01:46:19;22.25;;;2.50;;
40541;SDS011;49288;52.194;5.676;2022-09-21T01:51:24;5.88;;;2.20;;
40541;SDS011;49288;52.194;5.676;2022-09-21T02:01:57;7.90;;;2.30;;
40541;SDS011;49288;52.194;5.676;2022-09-21T02:07:03;5.78;;;2.33;;
40541;SDS011;49288;52.194;5.676;2022-09-21T02:12:07;4.87;;;2.10;;
40541;SDS011;49288;52.194;5.676;2022-09-21T02:22:34;4.95;;;2.50;;
40541;SDS011;49288;52.194;5.676;2022-09-21T02:28:05;13.75;;;2.30;;
40541;SDS011;49288;52.194;5.676;2022-09-21T02:33:24;13.10;;;2.30;;
40541;SDS011;49288;52.194;5.676;2022-09-21T02:44:03;2.97;;;1.90;;
40541;SDS011;49288;52.194;5.676;2022-09-21T02:49:17;4.55;;;1.95;;
40541;SDS011;49288;52.194;5.676;2022-09-21T02:54:42;5.72;;;2.33;;
40541;SDS011;49288;52.194;5.676;2022-09-21T02:59:48;4.35;;;2.15;;
40541;SDS011;49288;52.194;5.676;2022-09-21T03:04:51;6.55;;;2.50;;
40541;SDS011;49288;52.194;5.676;2022-09-21T03:09:55;4.25;;;2.28;;
40541;SDS011;49288;52.194;5.676;2022-09-21T03:14:59;6.17;;;2.20;;
40541;SDS011;49288;52.194;5.676;2022-09-21T03:20:24;4.78;;;2.22;;
40541;SDS011;49288;52.194;5.676;2022-09-21T03:25:27;4.50;;;2.20;;
40541;SDS011;49288;52.194;5.676;2022-09-21T03:30:30;8.55;;;2.65;;
40541;SDS011;49288;52.194;5.676;2022-09-21T03:35:33;5.63;;;2.30;;
40541;SDS011;49288;52.194;5.676;2022-09-21T03:40:36;5.85;;;2.40;;
40541;SDS011;49288;52.194;5.676;2022-09-21T03:45:41;4.38;;;2.33;;
40541;SDS011;49288;52.194;5.676;2022-09-21T03:50:45;14.77;;;2.30;;
40541;SDS011;49288;52.194;5.676;2022-09-21T03:55:49;8.23;;;2.00;;
40541;SDS011;49288;52.194;5.676;2022-09-21T04:00:51;4.95;;;2.00;;
40541;SDS011;49288;52.194;5.676;2022-09-21T04:05:57;5.60;;;2.08;;
40541;SDS011;49288;52.194;5.676;2022-09-21T04:11:00;13.18;;;2.40;;
40541;SDS011;49288;52.194;5.676;2022-09-21T04:16:03;4.20;;;2.10;;
40541;SDS011;49288;52.194;5.676;2022-09-21T04:21:07;3.60;;;1.95;;
40541;SDS011;49288;52.194;5.676;2022-09-21T04:26:24;4.32;;;2.50;;
40541;SDS011;49288;52.194;5.676;2022-09-21T04:31:31;8.00;;;2.40;;
40541;SDS011;49288;52.194;5.676;2022-09-21T04:36:34;3.50;;;2.10;;
40541;SDS011;49288;52.194;5.676;2022-09-21T04:41:39;7.80;;;2.30;;
40541;SDS011;49288;52.194;5.676;2022-09-21T04:46:42;4.53;;;2.15;;
40541;SDS011;49288;52.194;5.676;2022-09-21T04:51:46;11.93;;;2.50;;
40541;SDS011;49288;52.194;5.676;2022-09-21T04:56:50;6.13;;;2.10;;
40541;SDS011;49288;52.194;5.676;2022-09-21T05:01:53;9.02;;;2.15;;
40541;SDS011;49288;52.194;5.676;2022-09-21T05:06:55;4.28;;;2.20;;
40541;SDS011;49288;52.194;5.676;2022-09-21T05:12:00;7.28;;;2.25;;
40541;SDS011;49288;52.194;5.676;2022-09-21T05:17:04;6.70;;;2.22;;
40541;SDS011;49288;52.194;5.676;2022-09-21T05:22:07;4.18;;;2.05;;
40541;SDS011;49288;52.194;5.676;2022-09-21T05:27:10;5.47;;;2.28;;
40541;SDS011;49288;52.194;5.676;2022-09-21T05:42:40;4.78;;;2.20;;
40541;SDS011;49288;52.194;5.676;2022-09-21T06:03:42;3.95;;;2.30;;
40541;SDS011;49288;52.194;5.676;2022-09-21T06:08:45;5.43;;;2.60;;
40541;SDS011;49288;52.194;5.676;2022-09-21T06:13:48;7.18;;;2.60;;
40541;SDS011;49288;52.194;5.676;2022-09-21T06:18:51;9.27;;;2.80;;
40541;SDS011;49288;52.194;5.676;2022-09-21T06:23:54;4.90;;;2.40;;
40541;SDS011;49288;52.194;5.676;2022-09-21T06:28:56;4.05;;;2.42;;
40541;SDS011;49288;52.194;5.676;2022-09-21T06:34:00;3.83;;;2.40;;
40541;SDS011;49288;52.194;5.676;2022-09-21T06:39:03;3.90;;;2.60;;
40541;SDS011;49288;52.194;5.676;2022-09-21T06:44:06;4.03;;;2.40;;
40541;SDS011;49288;52.194;5.676;2022-09-21T06:49:09;8.43;;;3.30;;
40541;SDS011;49288;52.194;5.676;2022-09-21T06:54:12;7.38;;;2.92;;
40541;SDS011;49288;52.194;5.676;2022-09-21T06:59:14;4.07;;;2.60;;
40541;SDS011;49288;52.194;5.676;2022-09-21T07:04:17;7.63;;;2.92;;
40541;SDS011;49288;52.194;5.676;2022-09-21T07:09:26;7.72;;;2.90;;
40541;SDS011;49288;52.194;5.676;2022-09-21T07:14:49;5.35;;;3.40;;
40541;SDS011;49288;52.194;5.676;2022-09-21T07:19:51;15.52;;;3.55;;
40541;SDS011;49288;52.194;5.676;2022-09-21T07:24:54;7.63;;;3.92;;
40541;SDS011;49288;52.194;5.676;2022-09-21T07:29:58;12.63;;;4.20;;
40541;SDS011;49288;52.194;5.676;2022-09-21T07:35:01;7.88;;;3.97;;
40541;SDS011;49288;52.194;5.676;2022-09-21T07:40:04;11.30;;;4.78;;
40541;SDS011;49288;52.194;5.676;2022-09-21T07:45:07;25.90;;;5.50;;
40541;SDS011;49288;52.194;5.676;2022-09-21T07:50:12;21.50;;;6.30;;
40541;SDS011;49288;52.194;5.676;2022-09-21T07:55:16;20.08;;;5.15;;
40541;SDS011;49288;52.194;5.676;2022-09-21T08:00:18;16.02;;;4.38;;
40541;SDS011;49288;52.194;5.676;2022-09-21T08:05:21;16.48;;;5.03;;
40541;SDS011;49288;52.194;5.676;2022-09-21T08:10:24;12.23;;;3.80;;
40541;SDS011;49288;52.194;5.676;2022-09-21T08:15:31;21.52;;;4.65;;
40541;SDS011;49288;52.194;5.676;2022-09-21T08:20:55;26.85;;;5.53;;
40541;SDS011;49288;52.194;5.676;2022-09-21T08:25:59;20.13;;;5.18;;
40541;SDS011;49288;52.194;5.676;2022-09-21T08:31:08;16.77;;;5.10;;
40541;SDS011;49288;52.194;5.676;2022-09-21T08:36:11;14.55;;;4.45;;
40541;SDS011;49288;52.194;5.676;2022-09-21T08:47:02;14.75;;;3.13;;
40541;SDS011;49288;52.194;5.676;2022-09-21T08:52:25;9.65;;;2.80;;
40541;SDS011;49288;52.194;5.676;2022-09-21T08:57:28;12.82;;;2.63;;
40541;SDS011;49288;52.194;5.676;2022-09-21T09:18:40;13.80;;;2.35;;
40541;SDS011;49288;52.194;5.676;2022-09-21T09:23:52;9.30;;;2.28;;
40541;SDS011;49288;52.194;5.676;2022-09-21T09:29:40;11.70;;;2.30;;
40541;SDS011;49288;52.194;5.676;2022-09-21T09:35:30;12.57;;;2.45;;
40541;SDS011;49288;52.194;5.676;2022-09-21T09:40:10;14.80;;;2.30;;
40541;SDS011;49288;52.194;5.676;2022-09-21T09:50:38;6.65;;;2.10;;
40541;SDS011;49288;52.194;5.676;2022-09-21T09:55:46;16.15;;;2.60;;
40541;SDS011;49288;52.194;5.676;2022-09-21T10:00:51;10.23;;;2.17;;
40541;SDS011;49288;52.194;5.676;2022-09-21T10:05:56;8.50;;;1.90;;
40541;SDS011;49288;52.194;5.676;2022-09-21T10:10:58;4.53;;;2.17;;
40541;SDS011;49288;52.194;5.676;2022-09-21T10:21:35;6.95;;;2.13;;
40541;SDS011;49288;52.194;5.676;2022-09-21T10:31:54;10.40;;;2.13;;
40541;SDS011;49288;52.194;5.676;2022-09-21T10:42:26;5.53;;;1.83;;
40541;SDS011;49288;52.194;5.676;2022-09-21T10:52:41;4.80;;;1.53;;
40541;SDS011;49288;52.194;5.676;2022-09-21T10:57:48;3.80;;;1.90;;
40541;SDS011;49288;52.194;5.676;2022-09-21T11:08:18;4.83;;;1.50;;
40541;SDS011;49288;52.194;5.676;2022-09-21T11:23:46;11.88;;;2.03;;
40541;SDS011;49288;52.194;5.676;2022-09-21T11:29:28;10.20;;;1.90;;
40541;SDS011;49288;52.194;5.676;2022-09-21T11:40:02;7.03;;;2.20;;
40541;SDS011;49288;52.194;5.676;2022-09-21T11:45:22;9.70;;;2.10;;
40541;SDS011;49288;52.194;5.676;2022-09-21T11:51:15;12.45;;;2.08;;
40541;SDS011;49288;52.194;5.676;2022-09-21T12:01:43;7.60;;;2.00;;
40541;SDS011;49288;52.194;5.676;2022-09-21T12:12:38;5.90;;;1.83;;
40541;SDS011;49288;52.194;5.676;2022-09-21T12:23:58;2.85;;;1.45;;
40541;SDS011;49288;52.194;5.676;2022-09-21T12:29:09;7.50;;;2.47;;
40541;SDS011;49288;52.194;5.676;2022-09-21T12:34:16;5.55;;;1.58;;
40541;SDS011;49288;52.194;5.676;2022-09-21T12:39:28;4.53;;;1.35;;
40541;SDS011;49288;52.194;5.676;2022-09-21T12:44:39;9.15;;;1.80;;
40541;SDS011;49288;52.194;5.676;2022-09-21T12:50:01;3.33;;;1.20;;
40541;SDS011;49288;52.194;5.676;2022-09-21T12:55:38;4.07;;;1.35;;
40541;SDS011;49288;52.194;5.676;2022-09-21T13:17:30;9.55;;;1.75;;
40541;SDS011;49288;52.194;5.676;2022-09-21T13:22:35;3.97;;;1.83;;
40541;SDS011;49288;52.194;5.676;2022-09-21T13:38:25;6.00;;;1.60;;
40541;SDS011;49288;52.194;5.676;2022-09-21T13:54:11;7.38;;;1.77;;
40541;SDS011;49288;52.194;5.676;2022-09-21T14:04:26;5.55;;;1.70;;
40541;SDS011;49288;52.194;5.676;2022-09-21T14:15:08;4.65;;;1.60;;
40541;SDS011;49288;52.194;5.676;2022-09-21T14:20:28;6.40;;;1.60;;
40541;SDS011;49288;52.194;5.676;2022-09-21T14:25:48;5.32;;;1.42;;
40541;SDS011;49288;52.194;5.676;2022-09-21T14:30:56;6.20;;;1.85;;
40541;SDS011;49288;52.194;5.676;2022-09-21T14:41:08;4.25;;;1.65;;
40541;SDS011;49288;52.194;5.676;2022-09-21T14:46:36;8.00;;;1.75;;
40541;SDS011;49288;52.194;5.676;2022-09-21T14:57:38;6.50;;;1.55;;
40541;SDS011;49288;52.194;5.676;2022-09-21T15:24:19;3.28;;;1.50;;
40541;SDS011;49288;52.194;5.676;2022-09-21T15:29:29;4.80;;;1.50;;
40541;SDS011;49288;52.194;5.676;2022-09-21T15:34:32;6.40;;;2.00;;
40541;SDS011;49288;52.194;5.676;2022-09-21T15:39:35;4.97;;;1.40;;
40541;SDS011;49288;52.194;5.676;2022-09-21T15:44:37;7.88;;;2.53;;
40541;SDS011;49288;52.194;5.676;2022-09-21T15:49:40;11.05;;;2.10;;
40541;SDS011;49288;52.194;5.676;2022-09-21T15:54:45;10.38;;;2.40;;
40541;SDS011;49288;52.194;5.676;2022-09-21T16:00:01;11.82;;;1.70;;
40541;SDS011;49288;52.194;5.676;2022-09-21T16:05:12;3.45;;;1.45;;
40541;SDS011;49288;52.194;5.676;2022-09-21T16:15:31;7.80;;;1.80;;
40541;SDS011;49288;52.194;5.676;2022-09-21T16:25:44;3.80;;;1.50;;
40541;SDS011;49288;52.194;5.676;2022-09-21T16:30:55;6.47;;;1.75;;
40541;SDS011;49288;52.194;5.676;2022-09-21T16:36:00;6.78;;;1.80;;
40541;SDS011;49288;52.194;5.676;2022-09-21T16:41:05;6.45;;;1.85;;
40541;SDS011;49288;52.194;5.676;2022-09-21T16:46:10;6.20;;;1.60;;
40541;SDS011;49288;52.194;5.676;2022-09-21T16:51:16;4.73;;;1.77;;
40541;SDS011;49288;52.194;5.676;2022-09-21T16:56:23;6.47;;;1.80;;
40541;SDS011;49288;52.194;5.676;2022-09-21T17:01:25;4.47;;;1.60;;
40541;SDS011;49288;52.194;5.676;2022-09-21T17:06:30;5.68;;;1.60;;
40541;SDS011;49288;52.194;5.676;2022-09-21T17:11:36;5.65;;;1.88;;
40541;SDS011;49288;52.194;5.676;2022-09-21T17:16:39;5.45;;;1.65;;
40541;SDS011;49288;52.194;5.676;2022-09-21T17:21:41;7.50;;;1.83;;
40541;SDS011;49288;52.194;5.676;2022-09-21T17:26:46;3.30;;;1.65;;
40541;SDS011;49288;52.194;5.676;2022-09-21T17:31:49;6.97;;;1.65;;
40541;SDS011;49288;52.194;5.676;2022-09-21T17:36:54;3.25;;;1.60;;
40541;SDS011;49288;52.194;5.676;2022-09-21T17:47:24;8.48;;;2.00;;
40541;SDS011;49288;52.194;5.676;2022-09-21T17:52:30;10.70;;;2.00;;
40541;SDS011;49288;52.194;5.676;2022-09-21T17:58:02;4.50;;;1.65;;
40541;SDS011;49288;52.194;5.676;2022-09-21T18:03:27;4.95;;;1.85;;
